Time,TemperatureF,DewpointF,PressureIn,WindDirection,WindDirectionDegrees,WindSpeedMPH,WindSpeedGustMPH,Humidity,HourlyPrecipIn,Conditions,Clouds,dailyrainin,SolarRadiationWatts/m^2,SoftwareType,DateUTC
2016-02-08 00:00:00,46.9,43.0,30.15,SE,140,0.0,0.0,86,0.00,,,0.00,0.0,meteobridge,2016-02-08 06:00:00,
2016-02-08 00:05:00,46.9,43.0,30.14,SE,140,0.0,0.0,86,0.00,,,0.00,0.0,meteobridge,2016-02-08 06:05:00,
2016-02-08 00:10:00,46.9,43.0,30.14,SE,140,0.0,0.0,86,0.00,,,0.00,0.0,meteobridge,2016-02-08 06:10:00,
2016-02-08 00:15:00,47.1,43.2,30.14,SE,140,0.0,0.0,86,0.00,,,0.00,0.0,meteobridge,2016-02-08 06:15:00,
2016-02-08 00:20:00,47.1,43.2,30.14,SE,140,0.0,0.0,86,0.00,,,0.00,0.0,meteobridge,2016-02-08 06:20:00,
2016-02-08 00:25:00,47.5,43.5,30.14,SE,140,0.0,0.0,86,0.00,,,0.00,0.0,meteobridge,2016-02-08 06:25:00,
2016-02-08 00:30:00,47.7,43.7,30.14,SE,140,0.0,0.0,86,0.00,,,0.00,0.0,meteobridge,2016-02-08 06:30:00,
2016-02-08 00:35:00,47.8,43.9,30.14,SE,140,0.0,0.0,86,0.00,,,0.00,0.0,meteobridge,2016-02-08 06:35:00,
2016-02-08 00:40:00,47.8,43.9,30.14,SE,140,0.0,0.0,86,0.00,,,0.00,0.0,meteobridge,2016-02-08 06:40:00,
2016-02-08 00:45:00,47.8,43.9,30.14,SE,140,0.0,0.0,86,0.00,,,0.00,0.0,meteobridge,2016-02-08 06:45:00,
2016-02-08 00:50:00,47.8,43.9,30.14,SE,140,0.0,0.0,86,0.00,,,0.00,0.0,meteobridge,2016-02-08 06:50:00,
2016-02-08 00:55:00,47.8,43.9,30.14,SE,139,0.0,0.0,86,0.00,,,0.00,0.0,meteobridge,2016-02-08 06:55:00,
2016-02-08 01:00:00,48.2,43.9,30.14,SE,139,0.0,0.0,85,0.00,,,0.00,0.0,meteobridge,2016-02-08 07:00:00,
2016-02-08 01:05:00,48.6,44.2,30.15,SE,139,0.0,0.0,85,0.00,,,0.00,0.0,meteobridge,2016-02-08 07:05:00,
2016-02-08 01:10:00,48.7,44.4,30.15,SE,140,0.0,0.0,85,0.00,,,0.00,0.0,meteobridge,2016-02-08 07:10:00,
2016-02-08 01:15:00,48.7,44.4,30.15,SE,139,0.0,0.0,85,0.00,,,0.00,0.0,meteobridge,2016-02-08 07:15:00,
2016-02-08 01:21:00,48.7,44.4,30.14,South,183,0.0,0.0,85,0.00,,,0.00,0.0,meteobridge,2016-02-08 07:21:00,
2016-02-08 01:26:00,48.9,44.2,30.14,South,183,0.0,0.0,84,0.00,,,0.00,0.0,meteobridge,2016-02-08 07:26:00,
2016-02-08 01:31:00,48.7,44.4,30.15,South,183,0.0,0.0,85,0.00,,,0.00,0.0,meteobridge,2016-02-08 07:31:00,
2016-02-08 01:36:00,48.6,44.2,30.15,South,183,0.0,0.0,85,0.00,,,0.00,0.0,meteobridge,2016-02-08 07:36:00,
2016-02-08 01:41:00,48.4,44.1,30.15,South,183,0.0,0.0,85,0.00,,,0.00,0.0,meteobridge,2016-02-08 07:41:00,
2016-02-08 01:46:00,48.2,43.9,30.15,South,183,0.0,0.0,85,0.00,,,0.00,0.0,meteobridge,2016-02-08 07:46:00,
2016-02-08 01:51:00,48.0,43.7,30.15,WSW,239,0.9,3.0,85,0.00,,,0.00,0.0,meteobridge,2016-02-08 07:51:00,
2016-02-08 01:56:00,48.0,43.7,30.15,WSW,239,0.0,0.0,85,0.00,,,0.00,0.0,meteobridge,2016-02-08 07:56:00,
2016-02-08 02:01:00,48.0,43.7,30.15,WSW,239,0.9,2.0,85,0.00,,,0.00,0.0,meteobridge,2016-02-08 08:01:00,
2016-02-08 02:06:00,48.0,43.7,30.15,WSW,239,0.0,0.0,85,0.00,,,0.00,0.0,meteobridge,2016-02-08 08:06:00,
2016-02-08 02:11:00,48.0,43.7,30.15,WSW,239,0.0,0.0,85,0.00,,,0.00,0.0,meteobridge,2016-02-08 08:11:00,
2016-02-08 02:16:00,48.0,43.7,30.15,WSW,239,0.0,2.0,85,0.00,,,0.00,0.0,meteobridge,2016-02-08 08:16:00,
2016-02-08 02:21:00,48.0,43.7,30.15,WSW,239,0.0,0.0,85,0.00,,,0.00,0.0,meteobridge,2016-02-08 08:21:00,
2016-02-08 02:26:00,47.7,43.7,30.15,ESE,112,0.0,1.0,86,0.00,,,0.00,0.0,meteobridge,2016-02-08 08:26:00,
2016-02-08 02:31:00,46.8,43.2,30.15,ENE,74,0.0,0.0,87,0.00,,,0.00,0.0,meteobridge,2016-02-08 08:31:00,
2016-02-08 02:36:00,45.9,42.3,30.15,ENE,69,0.0,2.0,87,0.00,,,0.00,0.0,meteobridge,2016-02-08 08:36:00,
2016-02-08 02:41:00,45.1,41.5,30.15,ENE,69,0.0,0.0,87,0.00,,,0.00,0.0,meteobridge,2016-02-08 08:41:00,
2016-02-08 02:46:00,44.8,41.2,30.15,ENE,69,0.0,0.0,87,0.00,,,0.00,0.0,meteobridge,2016-02-08 08:46:00,
2016-02-08 02:51:00,44.2,40.6,30.15,ENE,69,0.0,0.0,87,0.00,,,0.00,0.0,meteobridge,2016-02-08 08:51:00,
2016-02-08 02:56:00,44.2,40.6,30.15,ENE,69,0.0,0.0,87,0.00,,,0.00,0.0,meteobridge,2016-02-08 08:56:00,
2016-02-08 03:01:00,44.2,40.3,30.15,ENE,69,0.0,0.0,86,0.00,,,0.00,0.0,meteobridge,2016-02-08 09:01:00,
2016-02-08 03:06:00,44.8,40.5,30.15,NNE,29,0.0,0.0,85,0.00,,,0.00,0.0,meteobridge,2016-02-08 09:06:00,
2016-02-08 03:12:00,44.8,40.5,30.15,NNE,28,0.9,2.0,85,0.00,,,0.00,0.0,meteobridge,2016-02-08 09:12:00,
2016-02-08 03:17:00,44.8,40.5,30.15,NNE,26,0.0,2.0,85,0.00,,,0.00,0.0,meteobridge,2016-02-08 09:17:00,
2016-02-08 03:22:00,45.0,40.6,30.15,North,0,2.0,4.0,85,0.00,,,0.00,0.0,meteobridge,2016-02-08 09:22:00,
2016-02-08 03:27:00,45.3,40.8,30.15,North,5,0.9,4.0,84,0.00,,,0.00,0.0,meteobridge,2016-02-08 09:27:00,
2016-02-08 03:32:00,45.7,41.2,30.16,North,5,0.9,2.0,84,0.00,,,0.00,0.0,meteobridge,2016-02-08 09:32:00,
2016-02-08 03:37:00,46.0,41.2,30.16,North,5,0.9,3.0,83,0.00,,,0.00,0.0,meteobridge,2016-02-08 09:37:00,
2016-02-08 03:42:00,46.2,41.4,30.16,NNE,12,2.9,4.0,83,0.00,,,0.00,0.0,meteobridge,2016-02-08 09:42:00,
2016-02-08 03:47:00,46.6,41.7,30.17,North,9,2.0,3.0,83,0.00,,,0.00,0.0,meteobridge,2016-02-08 09:47:00,
2016-02-08 03:52:00,46.6,42.1,30.17,NNE,15,0.9,4.0,84,0.00,,,0.00,0.0,meteobridge,2016-02-08 09:52:00,
2016-02-08 03:57:00,46.8,42.3,30.17,North,0,0.0,0.0,84,0.00,,,0.00,0.0,meteobridge,2016-02-08 09:57:00,
2016-02-08 04:02:00,46.6,42.3,30.17,NNE,13,2.0,4.0,85,0.00,,,0.00,0.0,meteobridge,2016-02-08 10:02:00,
2016-02-08 04:07:00,46.6,42.3,30.17,NNE,15,2.0,4.0,85,0.00,,,0.00,0.0,meteobridge,2016-02-08 10:07:00,
2016-02-08 04:12:00,46.4,42.4,30.17,NNE,14,0.9,3.0,86,0.00,,,0.00,0.0,meteobridge,2016-02-08 10:12:00,
2016-02-08 04:22:00,46.4,42.4,30.17,NNE,16,0.0,3.0,86,0.00,,,0.00,0.0,meteobridge,2016-02-08 10:22:00,
2016-02-08 04:27:00,46.4,42.4,30.17,NNE,17,0.0,2.0,86,0.00,,,0.00,0.0,meteobridge,2016-02-08 10:27:00,
2016-02-08 04:32:00,46.4,42.8,30.18,NNE,17,0.0,0.0,87,0.00,,,0.00,0.0,meteobridge,2016-02-08 10:32:00,
2016-02-08 04:38:00,46.4,42.4,30.18,North,5,0.0,2.0,86,0.00,,,0.00,0.0,meteobridge,2016-02-08 10:38:00,
2016-02-08 04:43:00,46.8,42.8,30.18,North,355,0.9,6.0,86,0.00,,,0.00,0.0,meteobridge,2016-02-08 10:43:00,
2016-02-08 04:48:00,47.1,43.2,30.18,North,355,4.9,5.0,86,0.00,,,0.00,0.0,meteobridge,2016-02-08 10:48:00,
2016-02-08 04:53:00,47.3,43.3,30.18,North,355,2.0,6.0,86,0.00,,,0.00,0.0,meteobridge,2016-02-08 10:53:00,
2016-02-08 04:58:00,47.3,43.7,30.18,North,355,2.9,6.0,87,0.00,,,0.00,0.0,meteobridge,2016-02-08 10:58:00,
2016-02-08 05:03:00,47.5,44.1,30.20,North,5,4.9,8.0,88,0.00,,,0.00,0.0,meteobridge,2016-02-08 11:03:00,
2016-02-08 05:08:00,47.7,44.2,30.20,North,9,2.9,8.0,88,0.00,,,0.00,0.0,meteobridge,2016-02-08 11:08:00,
2016-02-08 05:13:00,47.5,44.1,30.20,North,355,2.0,6.0,88,0.00,,,0.00,0.0,meteobridge,2016-02-08 11:13:00,
2016-02-08 05:18:00,47.5,44.1,30.21,NNE,17,2.9,9.0,88,0.00,,,0.00,0.0,meteobridge,2016-02-08 11:18:00,
2016-02-08 05:23:00,47.3,43.9,30.21,NNE,27,2.0,4.0,88,0.00,,,0.00,0.0,meteobridge,2016-02-08 11:23:00,
2016-02-08 05:28:00,47.1,43.5,30.21,NNE,15,2.9,6.0,87,0.00,,,0.00,0.0,meteobridge,2016-02-08 11:28:00,
2016-02-08 05:33:00,46.8,43.2,30.21,North,5,2.0,7.0,87,0.00,,,0.00,0.0,meteobridge,2016-02-08 11:33:00,
2016-02-08 05:38:00,46.6,43.0,30.21,NNE,22,4.0,6.0,87,0.00,,,0.00,0.0,meteobridge,2016-02-08 11:38:00,
2016-02-08 05:43:00,46.4,42.8,30.21,NNE,13,2.9,6.0,87,0.00,,,0.00,0.0,meteobridge,2016-02-08 11:43:00,
2016-02-08 05:48:00,46.2,42.6,30.22,North,11,0.0,0.0,87,0.00,,,0.00,0.0,meteobridge,2016-02-08 11:48:00,
2016-02-08 05:53:00,45.9,42.3,30.22,North,11,0.0,1.0,87,0.00,,,0.00,0.0,meteobridge,2016-02-08 11:53:00,
2016-02-08 05:58:00,45.5,41.9,30.22,North,11,0.0,0.0,87,0.00,,,0.00,0.0,meteobridge,2016-02-08 11:58:00,
2016-02-08 06:03:00,45.1,41.5,30.22,North,11,0.0,0.0,87,0.00,,,0.00,0.0,meteobridge,2016-02-08 12:03:00,
2016-02-08 06:08:00,44.8,41.2,30.22,North,11,2.0,3.0,87,0.00,,,0.00,0.0,meteobridge,2016-02-08 12:08:00,
2016-02-08 06:13:00,44.6,41.0,30.22,NNW,346,0.9,5.0,87,0.00,,,0.00,0.0,meteobridge,2016-02-08 12:13:00,
2016-02-08 06:18:00,44.6,41.2,30.23,North,355,0.9,6.0,88,0.00,,,0.00,0.0,meteobridge,2016-02-08 12:18:00,
2016-02-08 06:23:00,44.8,41.4,30.23,NNE,19,2.9,7.0,88,0.00,,,0.00,0.0,meteobridge,2016-02-08 12:23:00,
2016-02-08 06:28:00,45.0,41.4,30.23,North,5,8.9,9.0,87,0.00,,,0.00,0.0,meteobridge,2016-02-08 12:28:00,
2016-02-08 06:33:00,45.3,41.7,30.24,North,5,8.9,9.0,87,0.00,,,0.00,0.0,meteobridge,2016-02-08 12:33:00,
2016-02-08 06:38:00,45.5,41.9,30.24,NNE,20,0.9,8.0,87,0.00,,,0.00,0.0,meteobridge,2016-02-08 12:38:00,
2016-02-08 06:43:00,45.7,41.7,30.24,NNE,13,2.9,11.0,86,0.00,,,0.00,0.0,meteobridge,2016-02-08 12:43:00,
2016-02-08 06:48:00,45.7,41.7,30.25,NNE,24,6.0,10.0,86,0.00,,,0.00,0.0,meteobridge,2016-02-08 12:48:00,
2016-02-08 06:53:00,45.9,41.4,30.25,NNE,18,8.9,13.0,84,0.00,,,0.00,0.0,meteobridge,2016-02-08 12:53:00,
2016-02-08 06:58:00,46.2,41.0,30.25,NNE,30,8.1,15.0,82,0.00,,,0.00,0.0,meteobridge,2016-02-08 12:58:00,
2016-02-08 07:03:00,46.8,41.0,30.26,NNE,29,8.1,13.0,80,0.00,,,0.00,0.0,meteobridge,2016-02-08 13:03:00,
2016-02-08 07:09:00,46.8,40.6,30.26,NNE,15,10.1,13.0,79,0.00,,,0.00,0.0,meteobridge,2016-02-08 13:09:00,
2016-02-08 07:14:00,46.8,40.3,30.26,NNE,18,10.1,14.0,78,0.00,,,0.00,0.0,meteobridge,2016-02-08 13:14:00,
2016-02-08 07:19:00,46.9,40.1,30.26,NNE,15,10.1,13.0,77,0.00,,,0.00,9.0,meteobridge,2016-02-08 13:19:00,
2016-02-08 07:24:00,46.9,39.7,30.26,NNE,20,6.0,13.0,76,0.00,,,0.00,16.0,meteobridge,2016-02-08 13:24:00,
2016-02-08 07:29:00,46.8,39.6,30.26,NE,34,10.1,12.0,76,0.00,,,0.00,23.0,meteobridge,2016-02-08 13:29:00,
2016-02-08 07:34:00,46.8,39.2,30.27,NNE,26,10.1,14.0,75,0.00,,,0.00,32.0,meteobridge,2016-02-08 13:34:00,
2016-02-08 07:39:00,46.8,38.8,30.27,North,11,6.9,16.0,74,0.00,,,0.00,35.0,meteobridge,2016-02-08 13:39:00,
2016-02-08 07:44:00,46.9,38.7,30.27,NNE,23,8.9,14.0,73,0.00,,,0.00,42.0,meteobridge,2016-02-08 13:44:00,
2016-02-08 07:49:00,47.1,38.5,30.28,NNE,32,12.1,18.0,72,0.00,,,0.00,49.0,meteobridge,2016-02-08 13:49:00,
2016-02-08 07:54:00,47.3,38.7,30.28,NNE,22,8.9,15.0,72,0.00,,,0.00,44.0,meteobridge,2016-02-08 13:54:00,
2016-02-08 07:59:00,47.3,38.3,30.28,North,5,12.1,16.0,71,0.00,,,0.00,42.0,meteobridge,2016-02-08 13:59:00,
2016-02-08 08:04:00,47.3,38.3,30.29,NNE,30,11.0,14.0,71,0.00,,,0.00,49.0,meteobridge,2016-02-08 14:04:00,
2016-02-08 08:09:00,47.5,38.1,30.29,NNE,19,14.1,18.0,70,0.00,,,0.00,63.0,meteobridge,2016-02-08 14:09:00,
2016-02-08 08:14:00,47.7,37.6,30.29,NNE,13,10.1,14.0,68,0.00,,,0.00,172.0,meteobridge,2016-02-08 14:14:00,
2016-02-08 08:19:00,48.0,37.6,30.30,North,9,12.1,16.0,67,0.00,,,0.00,192.0,meteobridge,2016-02-08 14:19:00,
2016-02-08 08:24:00,48.4,37.2,30.30,NE,35,6.9,15.0,65,0.00,,,0.00,174.0,meteobridge,2016-02-08 14:24:00,
2016-02-08 08:29:00,48.6,36.5,30.30,NNE,20,12.1,17.0,63,0.00,,,0.00,176.0,meteobridge,2016-02-08 14:29:00,
2016-02-08 08:34:00,48.7,36.3,30.32,NNE,28,11.0,15.0,62,0.00,,,0.00,163.0,meteobridge,2016-02-08 14:34:00,
2016-02-08 08:39:00,48.9,36.5,30.32,North,5,6.9,14.0,62,0.00,,,0.00,257.0,meteobridge,2016-02-08 14:39:00,
2016-02-08 08:44:00,49.5,37.4,30.32,North,9,13.0,16.0,63,0.00,,,0.00,271.0,meteobridge,2016-02-08 14:44:00,
2016-02-08 08:49:00,49.6,36.3,30.32,North,0,10.1,16.0,60,0.00,,,0.00,290.0,meteobridge,2016-02-08 14:49:00,
2016-02-08 08:55:00,50.0,36.3,30.32,NNE,19,8.9,16.0,59,0.00,,,0.00,306.0,meteobridge,2016-02-08 14:55:00,
2016-02-08 09:00:00,50.5,36.3,30.32,North,355,12.1,15.0,58,0.00,,,0.00,330.0,meteobridge,2016-02-08 15:00:00,
2016-02-08 09:05:00,50.9,35.8,30.33,ENE,57,13.0,18.0,56,0.00,,,0.00,341.0,meteobridge,2016-02-08 15:05:00,
2016-02-08 09:10:00,51.3,35.2,30.33,NE,45,14.1,16.0,54,0.00,,,0.00,336.0,meteobridge,2016-02-08 15:10:00,
2016-02-08 09:15:00,51.8,34.2,30.33,NE,46,11.0,21.0,51,0.00,,,0.00,381.0,meteobridge,2016-02-08 15:15:00,
2016-02-08 09:20:00,52.3,33.8,30.35,NE,34,12.1,17.0,49,0.00,,,0.00,399.0,meteobridge,2016-02-08 15:20:00,
2016-02-08 09:25:00,52.9,33.8,30.35,NNE,15,15.0,16.0,48,0.00,,,0.00,408.0,meteobridge,2016-02-08 15:25:00,
2016-02-08 09:30:00,53.4,32.5,30.35,NNE,26,12.1,20.0,45,0.00,,,0.00,432.0,meteobridge,2016-02-08 15:30:00,
2016-02-08 09:35:00,53.8,31.3,30.35,NNE,25,6.9,20.0,42,0.00,,,0.00,446.0,meteobridge,2016-02-08 15:35:00,
2016-02-08 09:40:00,54.0,30.2,30.35,NNE,19,14.1,22.0,40,0.00,,,0.00,462.0,meteobridge,2016-02-08 15:40:00,
2016-02-08 09:45:00,54.1,29.1,30.35,North,5,13.0,23.0,38,0.00,,,0.00,489.0,meteobridge,2016-02-08 15:45:00,
2016-02-08 09:50:00,54.7,30.9,30.37,NNE,22,14.1,22.0,40,0.00,,,0.00,504.0,meteobridge,2016-02-08 15:50:00,
2016-02-08 09:55:00,55.0,31.8,30.37,North,10,8.9,23.0,41,0.00,,,0.00,501.0,meteobridge,2016-02-08 15:55:00,
2016-02-08 10:00:00,55.4,28.9,30.37,NNE,16,15.0,23.0,36,0.00,,,0.00,490.0,meteobridge,2016-02-08 16:00:00,
2016-02-08 10:05:00,55.6,28.4,30.37,North,5,13.0,23.0,35,0.00,,,0.00,504.0,meteobridge,2016-02-08 16:05:00,
2016-02-08 10:10:00,55.8,29.1,30.37,NNE,13,13.0,19.0,36,0.00,,,0.00,529.0,meteobridge,2016-02-08 16:10:00,
2016-02-08 10:15:00,55.9,28.0,30.37,North,5,15.0,19.0,34,0.00,,,0.00,554.0,meteobridge,2016-02-08 16:15:00,
2016-02-08 10:20:00,56.1,28.0,30.38,North,0,17.0,21.0,34,0.00,,,0.00,563.0,meteobridge,2016-02-08 16:20:00,
2016-02-08 10:25:00,56.5,26.2,30.38,North,10,17.9,22.0,31,0.00,,,0.00,575.0,meteobridge,2016-02-08 16:25:00,
2016-02-08 10:30:00,56.7,25.5,30.38,NNE,17,16.1,22.0,30,0.00,,,0.00,589.0,meteobridge,2016-02-08 16:30:00,
2016-02-08 10:35:00,56.8,25.7,30.39,North,11,14.1,20.0,30,0.00,,,0.00,603.0,meteobridge,2016-02-08 16:35:00,
2016-02-08 10:40:00,57.0,25.0,30.39,North,10,12.1,14.0,29,0.00,,,0.00,617.0,meteobridge,2016-02-08 16:40:00,
2016-02-08 10:45:00,57.4,25.3,30.39,North,355,14.1,14.1,29,0.00,,,0.00,626.0,meteobridge,2016-02-08 16:45:00,
2016-02-08 10:50:00,57.9,25.0,30.39,NNE,31,14.1,16.0,28,0.00,,,0.00,629.0,meteobridge,2016-02-08 16:50:00,
2016-02-08 10:55:00,57.7,24.8,30.39,NNE,15,14.1,20.0,28,0.00,,,0.00,531.0,meteobridge,2016-02-08 16:55:00,
2016-02-08 11:00:00,57.6,23.9,30.39,North,5,15.0,18.0,27,0.00,,,0.00,438.0,meteobridge,2016-02-08 17:00:00,
2016-02-08 11:05:00,57.7,24.8,30.39,North,5,13.0,17.0,28,0.00,,,0.00,624.0,meteobridge,2016-02-08 17:05:00,
2016-02-08 11:10:00,57.7,27.3,30.39,North,9,12.1,17.0,31,0.00,,,0.00,468.0,meteobridge,2016-02-08 17:10:00,
2016-02-08 11:15:00,57.7,28.0,30.39,NNE,13,12.1,17.0,32,0.00,,,0.00,494.0,meteobridge,2016-02-08 17:15:00,
2016-02-08 11:20:00,58.3,30.0,30.37,North,0,10.1,16.0,34,0.00,,,0.00,654.0,meteobridge,2016-02-08 17:20:00,
2016-02-08 11:25:00,58.5,30.9,30.37,North,355,14.1,15.0,35,0.00,,,0.00,543.0,meteobridge,2016-02-08 17:25:00,
2016-02-08 11:30:00,58.6,30.4,30.37,NNW,342,6.9,13.0,34,0.00,,,0.00,708.0,meteobridge,2016-02-08 17:30:00,
2016-02-08 11:35:00,59.2,28.6,30.37,NNE,17,18.0,18.0,31,0.00,,,0.00,717.0,meteobridge,2016-02-08 17:35:00,
2016-02-08 11:40:00,59.4,29.5,30.37,NNW,336,8.1,15.0,32,0.00,,,0.00,461.0,meteobridge,2016-02-08 17:40:00,
2016-02-08 11:45:00,59.2,29.3,30.37,NNW,347,8.1,15.0,32,0.00,,,0.00,659.0,meteobridge,2016-02-08 17:45:00,
2016-02-08 11:50:00,59.4,30.9,30.36,North,5,11.0,17.0,34,0.00,,,0.00,758.0,meteobridge,2016-02-08 17:50:00,
2016-02-08 11:55:00,59.7,30.6,30.36,North,0,14.1,16.0,33,0.00,,,0.00,793.0,meteobridge,2016-02-08 17:55:00,
2016-02-08 12:02:00,60.4,31.3,30.35,NNW,330,8.1,9.0,33,0.00,,,0.00,682.0,meteobridge,2016-02-08 18:02:00,
2016-02-08 12:07:00,60.4,30.4,30.35,NNW,333,4.9,10.0,32,0.00,,,0.00,737.0,meteobridge,2016-02-08 18:07:00,
2016-02-08 12:12:00,60.6,29.8,30.35,NNW,329,8.9,13.0,31,0.00,,,0.00,473.0,meteobridge,2016-02-08 18:12:00,
2016-02-08 12:17:00,60.4,29.7,30.35,NNW,348,12.1,17.0,31,0.00,,,0.00,534.0,meteobridge,2016-02-08 18:17:00,
2016-02-08 12:22:00,60.6,28.9,30.35,North,0,10.1,15.0,30,0.00,,,0.00,452.0,meteobridge,2016-02-08 18:22:00,
2016-02-08 12:27:00,60.4,29.7,30.35,NNW,348,8.9,11.0,31,0.00,,,0.00,455.0,meteobridge,2016-02-08 18:27:00,
2016-02-08 12:32:00,60.4,30.4,30.34,North,0,13.0,13.0,32,0.00,,,0.00,659.0,meteobridge,2016-02-08 18:32:00,
2016-02-08 12:37:00,60.8,31.5,30.34,NNW,335,2.0,15.0,33,0.00,,,0.00,664.0,meteobridge,2016-02-08 18:37:00,
2016-02-08 12:42:00,61.2,31.1,30.34,North,0,8.1,13.0,32,0.00,,,0.00,705.0,meteobridge,2016-02-08 18:42:00,
2016-02-08 12:47:00,61.3,30.4,30.33,NNW,346,6.0,14.0,31,0.00,,,0.00,740.0,meteobridge,2016-02-08 18:47:00,
2016-02-08 12:52:00,61.9,30.0,30.33,North,355,6.9,11.0,30,0.00,,,0.00,733.0,meteobridge,2016-02-08 18:52:00,
2016-02-08 12:57:00,62.1,29.5,30.33,NNW,329,2.0,14.0,29,0.00,,,0.00,552.0,meteobridge,2016-02-08 18:57:00,
2016-02-08 13:02:00,62.2,28.8,30.32,NNW,329,6.0,18.0,28,0.00,,,0.00,622.0,meteobridge,2016-02-08 19:02:00,
2016-02-08 13:07:00,62.6,32.4,30.32,NNW,340,11.0,11.0,32,0.00,,,0.00,714.0,meteobridge,2016-02-08 19:07:00,
2016-02-08 13:12:00,63.0,31.1,30.32,NNW,347,13.0,19.0,30,0.00,,,0.00,703.0,meteobridge,2016-02-08 19:12:00,
2016-02-08 13:17:00,63.0,29.3,30.31,NNW,336,6.9,13.0,28,0.00,,,0.00,752.0,meteobridge,2016-02-08 19:17:00,
2016-02-08 13:22:00,63.1,29.5,30.31,NW,325,8.1,19.0,28,0.00,,,0.00,742.0,meteobridge,2016-02-08 19:22:00,
2016-02-08 13:27:00,63.1,28.6,30.31,NNW,341,11.0,18.0,27,0.00,,,0.00,728.0,meteobridge,2016-02-08 19:27:00,
2016-02-08 13:32:00,63.1,33.6,30.30,NNW,336,4.9,15.0,33,0.00,,,0.00,591.0,meteobridge,2016-02-08 19:32:00,
2016-02-08 13:37:00,63.3,28.8,30.30,North,355,10.1,17.0,27,0.00,,,0.00,742.0,meteobridge,2016-02-08 19:37:00,
2016-02-08 13:42:00,63.3,27.9,30.30,North,5,11.0,21.0,26,0.00,,,0.00,744.0,meteobridge,2016-02-08 19:42:00,
2016-02-08 13:52:00,63.5,29.8,30.29,NNW,348,8.1,16.0,28,0.00,,,0.00,652.0,meteobridge,2016-02-08 19:52:00,
2016-02-08 13:57:00,63.7,30.0,30.29,NNW,346,11.0,18.0,28,0.00,,,0.00,615.0,meteobridge,2016-02-08 19:57:00,
2016-02-08 14:02:00,63.7,30.0,30.29,NNW,340,6.9,16.0,28,0.00,,,0.00,612.0,meteobridge,2016-02-08 20:02:00,
2016-02-08 14:08:00,63.9,31.8,30.29,NNW,344,8.9,17.0,30,0.00,,,0.00,519.0,meteobridge,2016-02-08 20:08:00,
2016-02-08 14:13:00,63.9,30.2,30.29,NW,321,14.1,14.1,28,0.00,,,0.00,526.0,meteobridge,2016-02-08 20:13:00,
2016-02-08 14:18:00,64.0,28.4,30.28,North,355,8.9,15.0,26,0.00,,,0.00,520.0,meteobridge,2016-02-08 20:18:00,
2016-02-08 14:23:00,64.2,30.4,30.28,North,355,10.1,16.0,28,0.00,,,0.00,462.0,meteobridge,2016-02-08 20:23:00,
2016-02-08 14:28:00,64.0,28.4,30.28,NNW,340,8.1,17.0,26,0.00,,,0.00,489.0,meteobridge,2016-02-08 20:28:00,
2016-02-08 14:33:00,64.0,28.4,30.27,NNW,328,8.1,18.0,26,0.00,,,0.00,483.0,meteobridge,2016-02-08 20:33:00,
2016-02-08 14:38:00,64.0,30.2,30.27,North,355,12.1,16.0,28,0.00,,,0.00,513.0,meteobridge,2016-02-08 20:38:00,
2016-02-08 14:43:00,64.2,27.7,30.27,NNE,15,8.9,15.0,25,0.00,,,0.00,527.0,meteobridge,2016-02-08 20:43:00,
2016-02-08 14:53:00,64.2,30.4,30.26,NNW,339,4.0,10.0,28,0.00,,,0.00,519.0,meteobridge,2016-02-08 20:53:00,
2016-02-08 14:58:00,64.4,28.8,30.26,North,355,6.9,15.0,26,0.00,,,0.00,522.0,meteobridge,2016-02-08 20:58:00,
2016-02-08 15:08:00,64.2,30.4,30.26,North,0,15.0,19.0,28,0.00,,,0.00,506.0,meteobridge,2016-02-08 21:08:00,
2016-02-08 15:13:00,63.9,27.3,30.26,North,9,16.1,18.0,25,0.00,,,0.00,515.0,meteobridge,2016-02-08 21:13:00,
2016-02-08 15:18:00,63.7,30.7,30.26,North,0,17.9,18.0,29,0.00,,,0.00,499.0,meteobridge,2016-02-08 21:18:00,
2016-02-08 15:23:00,63.3,27.0,30.26,North,355,8.9,18.0,25,0.00,,,0.00,497.0,meteobridge,2016-02-08 21:23:00,
2016-02-08 15:33:00,63.7,29.1,30.26,NNW,334,2.9,16.0,27,0.00,,,0.00,462.0,meteobridge,2016-02-08 21:33:00,
2016-02-08 15:38:00,63.9,30.9,30.26,North,355,8.9,10.0,29,0.00,,,0.00,455.0,meteobridge,2016-02-08 21:38:00,
2016-02-08 15:43:00,64.0,28.4,30.26,NW,316,4.9,11.0,26,0.00,,,0.00,431.0,meteobridge,2016-02-08 21:43:00,
2016-02-08 15:48:00,64.0,28.4,30.26,NNW,327,6.0,13.0,26,0.00,,,0.00,434.0,meteobridge,2016-02-08 21:48:00,
2016-02-08 15:53:00,64.0,30.2,30.26,NW,324,14.1,15.0,28,0.00,,,0.00,427.0,meteobridge,2016-02-08 21:53:00,
2016-02-08 15:58:00,63.7,26.2,30.26,NW,324,17.0,18.0,24,0.00,,,0.00,301.0,meteobridge,2016-02-08 21:58:00,
2016-02-08 16:08:00,63.3,28.8,30.26,NNW,345,8.1,17.0,27,0.00,,,0.00,330.0,meteobridge,2016-02-08 22:08:00,
2016-02-08 16:13:00,63.1,25.7,30.26,NW,321,10.1,17.0,24,0.00,,,0.00,327.0,meteobridge,2016-02-08 22:13:00,
2016-02-08 16:18:00,63.1,31.3,30.25,NW,320,4.9,14.0,30,0.00,,,0.00,304.0,meteobridge,2016-02-08 22:18:00,
2016-02-08 16:23:00,63.1,30.4,30.25,NW,323,15.0,17.0,29,0.00,,,0.00,332.0,meteobridge,2016-02-08 22:23:00,
2016-02-08 16:28:00,63.0,27.5,30.25,NNW,327,15.0,18.0,26,0.00,,,0.00,287.0,meteobridge,2016-02-08 22:28:00,
2016-02-08 16:33:00,62.8,27.3,30.25,NNW,336,2.0,14.0,26,0.00,,,0.00,174.0,meteobridge,2016-02-08 22:33:00,
2016-02-08 16:39:00,62.4,27.1,30.25,NNW,336,8.9,19.0,26,0.00,,,0.00,209.0,meteobridge,2016-02-08 22:39:00,
2016-02-08 16:49:00,62.2,29.7,30.25,NW,321,10.1,11.0,29,0.00,,,0.00,186.0,meteobridge,2016-02-08 22:49:00,
2016-02-08 16:54:00,62.1,28.6,30.25,NNW,339,8.1,15.0,28,0.00,,,0.00,236.0,meteobridge,2016-02-08 22:54:00,
2016-02-08 16:59:00,62.1,29.5,30.25,NW,321,8.1,12.0,29,0.00,,,0.00,162.0,meteobridge,2016-02-08 22:59:00,
2016-02-08 17:04:00,62.1,31.1,30.24,NNW,327,6.0,10.0,31,0.00,,,0.00,163.0,meteobridge,2016-02-08 23:04:00,
2016-02-08 17:14:00,61.9,29.3,30.24,NNW,332,8.1,14.0,29,0.00,,,0.00,153.0,meteobridge,2016-02-08 23:14:00,
2016-02-08 17:19:00,61.5,28.0,30.24,NNW,333,10.1,16.0,28,0.00,,,0.00,116.0,meteobridge,2016-02-08 23:19:00,
2016-02-08 17:24:00,61.5,31.5,30.24,NNW,332,11.0,12.0,32,0.00,,,0.00,98.0,meteobridge,2016-02-08 23:24:00,
2016-02-08 17:29:00,61.3,27.1,30.24,North,355,6.9,14.0,27,0.00,,,0.00,49.0,meteobridge,2016-02-08 23:29:00,
2016-02-08 17:34:00,61.2,30.2,30.25,NW,320,6.9,11.0,31,0.00,,,0.00,40.0,meteobridge,2016-02-08 23:34:00,
2016-02-08 17:39:00,60.6,30.6,30.25,NW,317,6.0,11.0,32,0.00,,,0.00,44.0,meteobridge,2016-02-08 23:39:00,
2016-02-08 17:44:00,60.3,30.2,30.25,NW,325,10.1,10.1,32,0.00,,,0.00,37.0,meteobridge,2016-02-08 23:44:00,
2016-02-08 17:49:00,59.9,30.0,30.24,NW,316,6.9,11.0,32,0.00,,,0.00,25.0,meteobridge,2016-02-08 23:49:00,
2016-02-08 17:54:00,59.4,30.2,30.24,NW,306,6.0,10.0,33,0.00,,,0.00,14.0,meteobridge,2016-02-08 23:54:00,
2016-02-08 17:59:00,59.2,30.0,30.24,NW,307,6.0,9.0,33,0.00,,,0.00,11.0,meteobridge,2016-02-08 23:59:00,
2016-02-08 18:04:00,58.6,30.4,30.25,NW,306,6.0,7.0,34,0.00,,,0.00,5.0,meteobridge,2016-02-09 00:04:00,
2016-02-08 18:09:00,58.1,30.6,30.25,WNW,300,4.0,8.0,35,0.00,,,0.00,0.0,meteobridge,2016-02-09 00:09:00,
2016-02-08 18:14:00,57.6,30.7,30.25,WNW,296,2.9,6.0,36,0.00,,,0.00,0.0,meteobridge,2016-02-09 00:14:00,
2016-02-08 18:19:00,57.0,30.9,30.26,WNW,301,4.9,7.0,37,0.00,,,0.00,0.0,meteobridge,2016-02-09 00:19:00,
2016-02-08 18:25:00,56.7,31.3,30.26,WNW,296,2.9,6.0,38,0.00,,,0.00,0.0,meteobridge,2016-02-09 00:25:00,
2016-02-08 18:35:00,55.9,31.3,30.26,WNW,292,0.0,4.0,39,0.00,,,0.00,0.0,meteobridge,2016-02-09 00:35:00,
2016-02-08 18:40:00,55.6,31.1,30.26,WNW,294,0.9,3.0,39,0.00,,,0.00,0.0,meteobridge,2016-02-09 00:40:00,
2016-02-08 18:45:00,55.0,31.8,30.26,WNW,294,0.9,4.0,41,0.00,,,0.00,0.0,meteobridge,2016-02-09 00:45:00,
2016-02-08 18:50:00,54.7,32.5,30.26,WNW,290,0.9,2.0,43,0.00,,,0.00,0.0,meteobridge,2016-02-09 00:50:00,
2016-02-08 18:55:00,54.3,33.4,30.26,WNW,283,2.0,2.0,45,0.00,,,0.00,0.0,meteobridge,2016-02-09 00:55:00,
2016-02-08 19:00:00,54.1,33.3,30.26,WNW,282,2.0,4.0,45,0.00,,,0.00,0.0,meteobridge,2016-02-09 01:00:00,
2016-02-08 19:05:00,54.1,32.7,30.26,West,281,2.0,4.0,44,0.00,,,0.00,0.0,meteobridge,2016-02-09 01:05:00,
2016-02-08 19:10:00,54.3,32.4,30.26,WNW,284,4.9,5.0,43,0.00,,,0.00,0.0,meteobridge,2016-02-09 01:10:00,
2016-02-08 19:15:00,54.1,30.9,30.26,WNW,284,2.0,3.0,41,0.00,,,0.00,0.0,meteobridge,2016-02-09 01:15:00,
2016-02-08 19:20:00,54.0,32.0,30.27,WNW,285,2.0,3.0,43,0.00,,,0.00,0.0,meteobridge,2016-02-09 01:20:00,
2016-02-08 19:25:00,53.6,32.2,30.27,WNW,285,0.9,2.0,44,0.00,,,0.00,0.0,meteobridge,2016-02-09 01:25:00,
2016-02-08 19:30:00,53.4,32.0,30.27,WNW,286,0.9,3.0,44,0.00,,,0.00,0.0,meteobridge,2016-02-09 01:30:00,
2016-02-08 19:35:00,53.2,33.1,30.28,WNW,286,0.9,2.0,46,0.00,,,0.00,0.0,meteobridge,2016-02-09 01:35:00,
2016-02-08 19:40:00,53.2,33.4,30.28,WNW,284,2.9,3.0,47,0.00,,,0.00,0.0,meteobridge,2016-02-09 01:40:00,
2016-02-08 19:45:00,53.4,33.1,30.28,West,281,4.0,5.0,46,0.00,,,0.00,0.0,meteobridge,2016-02-09 01:45:00,
2016-02-08 19:50:00,53.8,32.9,30.28,West,271,0.9,5.0,45,0.00,,,0.00,0.0,meteobridge,2016-02-09 01:50:00,
2016-02-08 19:55:00,53.8,33.4,30.28,West,272,0.9,3.0,46,0.00,,,0.00,0.0,meteobridge,2016-02-09 01:55:00,
2016-02-08 20:00:00,53.4,33.1,30.28,West,272,0.9,2.0,46,0.00,,,0.00,0.0,meteobridge,2016-02-09 02:00:00,
2016-02-08 20:05:00,53.2,33.4,30.29,West,272,0.0,1.0,47,0.00,,,0.00,0.0,meteobridge,2016-02-09 02:05:00,
2016-02-08 20:10:00,52.9,31.6,30.29,WNW,283,0.9,4.0,44,0.00,,,0.00,0.0,meteobridge,2016-02-09 02:10:00,
2016-02-08 20:15:00,52.5,32.4,30.29,WNW,283,0.9,1.0,46,0.00,,,0.00,0.0,meteobridge,2016-02-09 02:15:00,
2016-02-08 20:20:00,52.3,33.3,30.29,WNW,283,0.0,0.0,48,0.00,,,0.00,0.0,meteobridge,2016-02-09 02:20:00,
2016-02-08 20:30:00,51.6,33.1,30.29,WNW,283,0.0,0.0,49,0.00,,,0.00,0.0,meteobridge,2016-02-09 02:30:00,
2016-02-08 20:36:00,51.4,33.4,30.29,WNW,283,0.0,0.0,50,0.00,,,0.00,0.0,meteobridge,2016-02-09 02:36:00,
2016-02-08 20:41:00,51.4,32.9,30.29,WNW,283,0.0,0.0,49,0.00,,,0.00,0.0,meteobridge,2016-02-09 02:41:00,
2016-02-08 20:46:00,51.3,32.2,30.30,WNW,283,0.0,0.0,48,0.00,,,0.00,0.0,meteobridge,2016-02-09 02:46:00,
2016-02-08 20:56:00,51.3,33.3,30.30,WNW,283,0.0,0.0,50,0.00,,,0.00,0.0,meteobridge,2016-02-09 02:56:00,
2016-02-08 21:01:00,51.1,32.5,30.30,WNW,283,0.0,0.0,49,0.00,,,0.00,0.0,meteobridge,2016-02-09 03:01:00,
2016-02-08 21:06:00,51.1,32.5,30.30,WNW,283,0.0,0.0,49,0.00,,,0.00,0.0,meteobridge,2016-02-09 03:06:00,
2016-02-08 21:11:00,50.7,32.7,30.30,WNW,289,2.0,4.0,50,0.00,,,0.00,0.0,meteobridge,2016-02-09 03:11:00,
2016-02-08 21:16:00,50.7,32.2,30.31,WNW,294,2.0,4.0,49,0.00,,,0.00,0.0,meteobridge,2016-02-09 03:16:00,
2016-02-08 21:21:00,50.9,31.8,30.31,WNW,296,2.0,5.0,48,0.00,,,0.00,0.0,meteobridge,2016-02-09 03:21:00,
2016-02-08 21:26:00,50.9,32.9,30.31,WNW,295,2.0,4.0,50,0.00,,,0.00,0.0,meteobridge,2016-02-09 03:26:00,
2016-02-08 21:31:00,50.9,33.4,30.31,WNW,287,2.9,5.0,51,0.00,,,0.00,0.0,meteobridge,2016-02-09 03:31:00,
2016-02-08 21:36:00,51.1,32.5,30.31,WNW,288,0.9,6.0,49,0.00,,,0.00,0.0,meteobridge,2016-02-09 03:36:00,
2016-02-08 21:41:00,51.1,32.0,30.31,WNW,284,2.9,7.0,48,0.00,,,0.00,0.0,meteobridge,2016-02-09 03:41:00,
2016-02-08 21:46:00,50.7,32.2,30.31,WNW,287,2.0,6.0,49,0.00,,,0.00,0.0,meteobridge,2016-02-09 03:46:00,
2016-02-08 21:51:00,50.4,32.4,30.31,WNW,286,2.9,5.0,50,0.00,,,0.00,0.0,meteobridge,2016-02-09 03:51:00,
2016-02-08 22:01:00,49.8,32.4,30.32,WNW,288,0.9,3.0,51,0.00,,,0.00,0.0,meteobridge,2016-02-09 04:01:00,
2016-02-08 22:06:00,49.6,33.3,30.32,WNW,288,0.0,2.0,53,0.00,,,0.00,0.0,meteobridge,2016-02-09 04:06:00,
2016-02-08 22:11:00,49.8,33.4,30.32,WNW,289,0.9,4.0,53,0.00,,,0.00,0.0,meteobridge,2016-02-09 04:11:00,
2016-02-08 22:16:00,49.8,32.9,30.32,WNW,290,0.9,2.0,52,0.00,,,0.00,0.0,meteobridge,2016-02-09 04:16:00,